createdAt,value
2016-08-13T00:02:50.876Z,88.75
2016-08-13T00:07:48.931Z,88.70
2016-08-13T00:12:46.786Z,88.89
2016-08-13T00:17:44.506Z,89.03
2016-08-13T00:22:42.182Z,89.09
2016-08-13T00:27:39.994Z,89.28
2016-08-13T00:32:37.929Z,89.37
2016-08-13T00:37:35.605Z,89.47
2016-08-13T00:42:33.287Z,89.76
2016-08-13T00:47:31.183Z,89.95
2016-08-13T00:52:28.987Z,89.95
2016-08-13T00:57:26.815Z,89.76
2016-08-13T01:02:24.836Z,89.76
2016-08-13T01:07:22.690Z,90.05
2016-08-13T01:12:20.530Z,89.86
2016-08-13T01:17:18.290Z,89.76
2016-08-13T01:22:16.190Z,89.76
2016-08-13T01:27:14.045Z,89.67
2016-08-13T01:32:11.813Z,89.47
2016-08-13T01:37:09.602Z,89.86
2016-08-13T01:42:07.510Z,89.67
2016-08-13T01:47:05.435Z,89.76
2016-08-13T01:52:03.179Z,89.67
2016-08-13T01:57:01.054Z,89.86
2016-08-13T02:01:58.850Z,89.76
2016-08-13T02:06:56.882Z,89.86
2016-08-13T02:11:54.726Z,89.67
2016-08-13T02:16:52.685Z,89.95
2016-08-13T02:21:50.592Z,90.15
2016-08-13T02:26:48.350Z,89.57
2016-08-13T02:31:46.211Z,89.67
2016-08-13T02:36:44.145Z,89.47
2016-08-13T02:41:42.100Z,89.86
2016-08-13T02:46:39.876Z,89.67
2016-08-13T02:51:37.660Z,90.05
2016-08-13T02:56:35.640Z,89.86
2016-08-13T03:01:33.613Z,89.76
2016-08-13T03:06:31.710Z,89.67
2016-08-13T03:11:29.530Z,89.95
2016-08-13T03:16:27.435Z,89.81
2016-08-13T03:21:25.344Z,90.15
2016-08-13T03:26:23.130Z,89.91
2016-08-13T03:31:20.959Z,89.62
2016-08-13T03:36:18.826Z,89.62
2016-08-13T03:41:16.829Z,89.57
2016-08-13T03:46:14.537Z,89.53
2016-08-13T03:51:12.556Z,89.14
2016-08-13T03:56:10.466Z,89.04
2016-08-13T04:01:08.308Z,89.14
2016-08-13T04:06:06.104Z,89.04
2016-08-13T04:11:03.911Z,89.23
2016-08-13T04:16:01.871Z,89.14
2016-08-13T04:20:59.760Z,88.85
2016-08-13T04:25:57.592Z,88.37
2016-08-13T04:30:55.450Z,88.17
2016-08-13T04:35:53.189Z,88.08
2016-08-13T04:40:51.054Z,88.51
2016-08-13T04:45:49.060Z,87.93
2016-08-13T04:50:46.924Z,87.54
2016-08-13T04:55:44.905Z,87.45
2016-08-13T05:00:42.947Z,87.93
2016-08-13T05:05:40.633Z,87.06
2016-08-13T05:10:38.564Z,86.48
2016-08-13T05:15:36.514Z,86.72
2016-08-13T05:20:34.413Z,86.52
2016-08-13T05:25:32.239Z,85.27
2016-08-13T05:30:30.110Z,82.07
2016-08-13T05:35:27.968Z,81.15
2016-08-13T05:40:25.778Z,82.26
2016-08-13T05:45:23.576Z,82.75
2016-08-13T05:50:21.388Z,83.19
2016-08-13T05:55:19.180Z,83.29
2016-08-13T06:00:16.962Z,83.09
2016-08-13T06:05:15.142Z,83.29
2016-08-13T06:10:12.961Z,83.04
2016-08-13T06:15:10.797Z,82.84
2016-08-13T06:20:08.812Z,82.17
2016-08-13T06:25:06.654Z,81.68
2016-08-13T06:30:04.577Z,81.98
2016-08-13T06:35:02.583Z,82.07
2016-08-13T06:40:00.304Z,81.40
2016-08-13T06:44:58.132Z,81.44
2016-08-13T06:49:56.068Z,81.49
2016-08-13T06:54:53.895Z,80.66
2016-08-13T06:59:51.789Z,80.18
2016-08-13T07:04:49.641Z,80.28
2016-08-13T07:09:47.500Z,80.47
2016-08-13T07:14:45.449Z,80.08
2016-08-13T07:19:43.244Z,80.18
2016-08-13T07:24:41.110Z,80.38
2016-08-13T07:29:38.810Z,80.08
2016-08-13T07:34:36.654Z,80.38
2016-08-13T07:39:34.528Z,80.08
2016-08-13T07:44:32.298Z,79.89
2016-08-13T07:49:30.299Z,79.16
2016-08-13T07:54:28.341Z,79.45
2016-08-13T07:59:26.179Z,78.09
2016-08-13T08:04:24.133Z,78.48
2016-08-13T08:09:21.865Z,77.84
2016-08-13T08:14:19.933Z,76.14
2016-08-13T08:19:17.713Z,76.43
2016-08-13T08:24:15.663Z,76.14
2016-08-13T08:29:13.644Z,75.70
2016-08-13T08:34:11.555Z,75.75
2016-08-13T08:39:09.392Z,76.62
2016-08-13T08:44:07.083Z,77.01
2016-08-13T08:49:04.800Z,77.26
2016-08-13T08:54:02.557Z,77.75
2016-08-13T08:59:00.446Z,78.33
2016-08-13T09:03:57.966Z,79.00
2016-08-13T09:08:55.788Z,80.46
2016-08-13T09:13:53.541Z,78.77
2016-08-13T09:18:51.261Z,78.87
2016-08-13T09:23:48.932Z,79.25
2016-08-13T09:28:46.672Z,80.41
2016-08-13T09:33:44.653Z,78.96
2016-08-13T09:38:42.428Z,78.00
2016-08-13T09:43:40.311Z,77.75
2016-08-13T09:48:38.128Z,77.75
2016-08-13T09:53:35.975Z,78.38
2016-08-13T09:58:33.793Z,79.74
2016-08-13T10:03:31.608Z,79.80
2016-08-13T10:08:29.395Z,79.83
2016-08-13T10:13:27.166Z,80.71
2016-08-13T10:18:24.742Z,80.47
2016-08-13T10:23:22.452Z,80.22
2016-08-13T10:28:20.385Z,79.35
2016-08-13T10:33:18.117Z,78.96
2016-08-13T10:38:15.793Z,80.08
2016-08-13T10:43:13.493Z,80.22
2016-08-13T10:48:11.368Z,80.22
2016-08-13T10:53:09.198Z,80.22
2016-08-13T10:58:07.037Z,79.74
2016-08-13T11:03:04.785Z,78.77
2016-08-13T11:08:02.424Z,78.38
2016-08-13T11:13:00.209Z,77.22
2016-08-13T11:17:57.889Z,77.61
2016-08-13T11:22:55.536Z,77.80
2016-08-13T11:27:53.156Z,77.13
2016-08-13T11:32:50.972Z,77.13
2016-08-13T11:37:48.823Z,77.22
2016-08-13T11:42:46.556Z,77.22
2016-08-13T11:47:44.172Z,76.45
2016-08-13T11:52:41.956Z,76.64
2016-08-13T11:57:39.621Z,76.74
2016-08-13T12:02:37.354Z,76.64
2016-08-13T12:07:35.289Z,75.48
2016-08-13T12:12:32.960Z,74.81
2016-08-13T12:17:31.922Z,74.90
2016-08-13T12:22:29.403Z,75.29
2016-08-13T12:27:27.230Z,75.29
2016-08-13T12:32:24.878Z,74.90
2016-08-13T12:37:22.712Z,74.52
2016-08-13T12:42:20.449Z,74.42
2016-08-13T12:47:18.217Z,74.71
2016-08-13T12:52:15.940Z,74.32
2016-08-13T12:57:13.619Z,74.48
2016-08-13T13:02:11.252Z,75.06
2016-08-13T13:07:09.002Z,74.68
2016-08-13T13:12:06.693Z,74.32
2016-08-13T13:17:04.603Z,74.62
2016-08-13T13:22:02.276Z,74.71
2016-08-13T13:26:59.919Z,74.23
2016-08-13T13:31:57.685Z,74.13
2016-08-13T13:36:55.337Z,74.52
2016-08-13T13:41:52.930Z,74.90
2016-08-13T13:46:50.781Z,74.71
2016-08-13T13:51:48.671Z,74.90
2016-08-13T13:56:46.418Z,75.20
2016-08-13T14:01:44.265Z,75.00
2016-08-13T14:06:42.058Z,75.00
2016-08-13T14:11:39.761Z,75.29
2016-08-13T14:16:37.731Z,76.06
2016-08-13T14:21:35.386Z,75.68
2016-08-13T14:26:33.085Z,76.16
2016-08-13T14:31:30.869Z,75.29
2016-08-13T14:36:28.474Z,75.48
2016-08-13T14:41:26.331Z,76.06
2016-08-13T14:46:24.104Z,77.22
2016-08-13T14:51:21.825Z,76.64
2016-08-13T14:56:19.596Z,76.64
2016-08-13T15:01:18.242Z,75.97
2016-08-13T15:06:15.999Z,76.55
2016-08-13T15:11:13.679Z,76.64
2016-08-13T15:16:11.409Z,77.51
2016-08-13T15:21:09.126Z,77.03
2016-08-13T15:26:07.045Z,77.57
2016-08-13T15:31:04.797Z,78.06
2016-08-13T15:36:02.629Z,78.00
2016-08-13T15:41:00.386Z,78.67
2016-08-13T15:45:58.341Z,79.35
2016-08-13T15:50:55.912Z,77.90
2016-08-13T15:55:53.867Z,77.42
2016-08-13T16:00:51.567Z,77.96
2016-08-13T16:05:49.320Z,77.67
2016-08-13T16:10:47.120Z,78.34
2016-08-13T16:15:44.859Z,78.44
2016-08-13T16:20:42.543Z,78.44
2016-08-13T16:25:40.403Z,78.25
2016-08-13T16:30:38.095Z,78.25
2016-08-13T16:35:35.885Z,78.25
2016-08-13T16:40:33.813Z,77.96
2016-08-13T16:45:31.689Z,78.34
2016-08-13T16:50:29.261Z,78.44
2016-08-13T16:55:27.004Z,78.25
2016-08-13T17:00:24.821Z,78.25
2016-08-13T17:05:22.634Z,78.44
2016-08-13T17:10:20.487Z,78.83
2016-08-13T17:15:18.160Z,79.02
2016-08-13T17:20:15.886Z,78.92
2016-08-13T17:25:13.839Z,79.70
2016-08-13T17:30:11.329Z,79.31
2016-08-13T17:35:09.187Z,79.31
2016-08-13T17:40:06.980Z,79.99
2016-08-13T17:45:04.506Z,80.08
2016-08-13T17:50:02.035Z,80.24
2016-08-13T17:54:59.762Z,80.33
2016-08-13T17:59:57.504Z,80.38
2016-08-13T18:04:55.184Z,80.33
2016-08-13T18:09:52.981Z,80.14
2016-08-13T18:14:50.878Z,80.08
2016-08-13T18:19:48.683Z,80.82
2016-08-13T18:24:46.531Z,81.20
2016-08-13T18:29:44.218Z,80.82
2016-08-13T18:34:41.824Z,81.49
2016-08-13T18:39:39.496Z,80.91
2016-08-13T18:44:37.141Z,81.20
2016-08-13T18:49:34.975Z,81.40
2016-08-13T18:54:32.629Z,81.20
2016-08-13T18:59:30.241Z,81.49
2016-08-13T19:04:28.013Z,82.17
2016-08-13T19:09:25.760Z,81.11
2016-08-13T19:14:23.505Z,82.07
2016-08-13T19:19:21.331Z,82.07
2016-08-13T19:24:19.107Z,81.88
2016-08-13T19:29:16.775Z,81.65
2016-08-13T19:34:14.567Z,81.98
2016-08-13T19:39:12.318Z,81.98
2016-08-13T19:44:10.014Z,82.36
2016-08-13T19:49:07.797Z,82.26
2016-08-13T19:54:05.532Z,82.32
2016-08-13T19:59:03.478Z,82.42
2016-08-13T20:04:01.316Z,82.46
2016-08-13T20:08:58.985Z,82.17
2016-08-13T20:13:57.057Z,82.42
2016-08-13T20:18:54.893Z,82.42
2016-08-13T20:23:52.788Z,82.32
2016-08-13T20:28:50.531Z,82.17
2016-08-13T20:33:48.511Z,82.81
2016-08-13T20:38:46.098Z,82.81
2016-08-13T20:43:43.809Z,82.13
2016-08-13T20:48:41.511Z,82.23
2016-08-13T20:53:39.247Z,82.13
2016-08-13T20:58:37.045Z,83.00
2016-08-13T21:03:34.813Z,83.09
2016-08-13T21:08:32.602Z,82.61
2016-08-13T21:13:30.407Z,82.61
2016-08-13T21:18:28.239Z,82.81
2016-08-13T21:23:26.069Z,83.09
2016-08-13T21:28:24.041Z,83.58
2016-08-13T21:33:21.767Z,83.67
2016-08-13T21:38:19.648Z,84.25
2016-08-13T21:43:17.341Z,84.44
2016-08-13T21:48:15.258Z,85.31
2016-08-13T21:53:13.018Z,85.22
2016-08-13T21:58:10.676Z,84.74
2016-08-13T22:03:08.485Z,84.25
2016-08-13T22:08:06.054Z,84.64
2016-08-13T22:13:03.796Z,84.44
2016-08-13T22:18:01.648Z,84.06
2016-08-13T22:23:00.528Z,84.44
2016-08-13T22:27:57.942Z,84.54
2016-08-13T22:32:55.766Z,84.54
2016-08-13T22:37:53.609Z,84.64
2016-08-13T22:42:51.350Z,84.06
2016-08-13T22:47:49.183Z,84.83
2016-08-13T22:52:47.020Z,84.44
2016-08-13T22:57:44.783Z,84.44
2016-08-13T23:02:42.483Z,84.44
2016-08-13T23:07:40.200Z,84.74
2016-08-13T23:12:37.896Z,84.93
2016-08-13T23:17:35.668Z,84.59
2016-08-13T23:22:33.581Z,84.41
2016-08-13T23:27:31.157Z,85.37
2016-08-13T23:32:28.847Z,84.98
2016-08-13T23:37:26.727Z,84.79
2016-08-13T23:42:24.410Z,85.08
2016-08-13T23:47:22.155Z,85.37
2016-08-13T23:52:19.982Z,85.37
2016-08-13T23:57:17.755Z,85.27
